International Virtual Aviation Organisation

Russian Federation and Kazakhstan MCD

 

Карточка аэропорта UMKK

Внимание!
Информация на этой странице в стадии наполнения.
Если вы не увидели какой-то информации, или заметили неточность - пожалуйста сообщите нам!
Спасибо!
Команда RU-STAFF
Название аэропортаХраброво
Название аэропорта (англ.)Khrabrovo
Превышение43 ft. (13.1 m.)
Координаты54°53.4', 20°35.55'
Высота перехода1000m
Эшелон переходаQFE>=742mm:FL050; QFE<742:FL060
Коды ответчика6620-6637
Зона ОрВДКалининград РПИ (UMKK)
Данные METARUMKK 300100Z 24002MPS CAVOK 00/M01 Q1021 R24/CLRD95 NOSIG RMK QFE765/1020
Проноз погоды (TAF)UMKK 292256Z 3000/3024 VRB01MPS 3100 -SN BR BKN011 TEMPO 3000/3010 1500 SHSN BR BKN005 BKN016CB PROB40 TEMPO 3000/3009 0500 SHSN FZFG BKN002 BKN013CB FM301000 21006G11MPS 5000 -SNRA BKN011 TEMPO 3010/3022 24007MPS 3100 -SHRASN BKN006 BKN013CB
NOTAMshow/hide NOTAM
AWOS   TABLE

Информация о ВПП

ВПП Длина ВПП (м.) Покрытие Курс ВПП Частота ILS
063350Асфальтобетон60110.3
243350Асфальтобетон240109.5

Диспетчерские позиции

Позывной Наименование органа УВД Частота
UMKK_TWRКалининград-Вышка127.2
UMKK_APPКалининград-Подход126.0



Спутниковое изображение